Terminal Aerodrome Forecast
Issued by NWS

Home | Current Version | Previous Version | Text Only | Print | Product List | Glossary Off
Versions: 1 2 3 4 5 6 7 8 9 10 11 12 13 14 15 16 17 18 19 20 21 22

000
FTUS43 KABR 241700
TAFPIR
TAF
KPIR 241740Z 2418/2518 13006KT P6SM BKN060 BKN100 OVC250
     FM250700 01006KT P6SM SCT025 BKN040 OVC060
      TEMPO 2510/2513 -PLSN BKN025 OVC040
     FM251300 01014KT 2SM -SN BR OVC020=

USA.gov is the U.S. government's official web portal to all federal, state and local government web resources and services.